createdAt,value
2023-01-22T00:00:44.947Z,99.99
2023-01-22T00:01:44.951Z,99.99
2023-01-22T00:02:44.975Z,99.99
2023-01-22T00:03:46.806Z,99.99
2023-01-22T00:04:44.914Z,99.99
2023-01-22T00:05:44.883Z,99.99
2023-01-22T00:06:44.868Z,99.99
2023-01-22T00:07:44.860Z,99.99
2023-01-22T00:08:44.860Z,99.99
2023-01-22T00:09:44.844Z,99.99
2023-01-22T00:10:44.817Z,99.99
2023-01-22T00:11:44.806Z,99.99
2023-01-22T00:12:44.793Z,99.99
2023-01-22T00:13:44.787Z,99.99
2023-01-22T00:14:44.808Z,99.99
2023-01-22T00:15:44.801Z,99.99
2023-01-22T00:16:44.747Z,99.99
2023-01-22T00:17:44.750Z,99.99
2023-01-22T00:18:44.722Z,99.99
2023-01-22T00:19:44.730Z,99.99
2023-01-22T00:20:44.691Z,99.99
2023-01-22T00:21:44.691Z,99.99
2023-01-22T00:22:44.668Z,99.99
2023-01-22T00:23:44.668Z,99.99
2023-01-22T00:24:44.659Z,99.99
2023-01-22T00:25:44.631Z,99.99
2023-01-22T00:26:44.616Z,99.99
2023-01-22T00:27:45.459Z,99.99
2023-01-22T00:28:44.596Z,99.99
2023-01-22T00:29:44.595Z,99.99
2023-01-22T00:30:44.573Z,99.99
2023-01-22T00:31:44.748Z,99.99
2023-01-22T00:32:44.542Z,99.99
2023-01-22T00:33:45.496Z,99.99
2023-01-22T00:34:44.530Z,99.99
2023-01-22T00:35:44.506Z,99.99
2023-01-22T00:36:44.493Z,99.99
2023-01-22T00:37:44.493Z,99.99
2023-01-22T00:38:44.467Z,99.99
2023-01-22T00:39:44.457Z,99.99
2023-01-22T00:40:44.466Z,99.99
2023-01-22T00:41:44.430Z,99.99
2023-01-22T00:42:44.419Z,99.99
2023-01-22T00:43:44.410Z,99.99
2023-01-22T00:44:44.395Z,99.99
2023-01-22T00:45:44.392Z,99.99
2023-01-22T00:46:44.384Z,99.99
2023-01-22T00:47:44.355Z,99.99
2023-01-22T00:48:44.335Z,99.99
2023-01-22T00:49:44.358Z,99.99
2023-01-22T00:50:44.328Z,99.99
2023-01-22T00:51:44.301Z,99.99
2023-01-22T00:52:44.294Z,99.99
2023-01-22T00:53:44.279Z,99.99
2023-01-22T00:54:44.267Z,99.99
2023-01-22T00:55:44.272Z,99.99
2023-01-22T00:56:44.235Z,99.99
2023-01-22T00:57:44.227Z,99.99
2023-01-22T00:58:44.220Z,99.99
2023-01-22T00:59:44.203Z,99.99
2023-01-22T01:00:44.228Z,99.99
2023-01-22T01:01:44.190Z,99.99
2023-01-22T01:02:44.163Z,99.99
2023-01-22T01:03:44.155Z,99.99
2023-01-22T01:04:44.137Z,99.99
2023-01-22T01:05:44.137Z,99.99
2023-01-22T01:06:44.118Z,99.99
2023-01-22T01:07:44.104Z,99.99
2023-01-22T01:08:44.087Z,99.99
2023-01-22T01:09:44.098Z,99.99
2023-01-22T01:10:44.089Z,99.99
2023-01-22T01:11:44.052Z,99.99
2023-01-22T01:12:44.153Z,99.99
2023-01-22T01:13:44.034Z,99.99
2023-01-22T01:14:44.017Z,99.99
2023-01-22T01:15:44.061Z,99.99
2023-01-22T01:16:43.987Z,99.99
2023-01-22T01:17:43.977Z,99.99
2023-01-22T01:18:43.963Z,99.99
2023-01-22T01:19:43.950Z,99.99
2023-01-22T01:20:43.953Z,99.99
2023-01-22T01:21:43.929Z,99.99
2023-01-22T01:22:43.913Z,99.99
2023-01-22T01:23:43.906Z,99.99
2023-01-22T01:24:43.893Z,99.99
2023-01-22T01:25:43.898Z,99.99
2023-01-22T01:26:43.860Z,99.99
2023-01-22T01:27:43.848Z,99.99
2023-01-22T01:28:43.947Z,99.99
2023-01-22T01:29:43.828Z,99.99
2023-01-22T01:30:43.859Z,99.99
2023-01-22T01:31:43.931Z,99.99
2023-01-22T01:32:43.793Z,99.99
2023-01-22T01:33:43.777Z,99.95
2023-01-22T01:34:43.772Z,99.99
2023-01-22T01:35:43.771Z,99.84
2023-01-22T01:36:49.147Z,99.84
2023-01-22T01:37:44.728Z,99.84
2023-01-22T01:38:43.718Z,99.84
2023-01-22T01:39:43.703Z,99.84
2023-01-22T01:40:43.682Z,99.74
2023-01-22T01:41:43.683Z,99.74
2023-01-22T01:42:43.659Z,99.63
2023-01-22T01:43:43.650Z,99.74
2023-01-22T01:44:43.752Z,99.74
2023-01-22T01:45:43.628Z,99.74
2023-01-22T01:46:43.638Z,99.74
2023-01-22T01:47:43.595Z,99.63
2023-01-22T01:48:43.616Z,99.63
2023-01-22T01:49:43.583Z,99.74
2023-01-22T01:50:43.559Z,99.63
2023-01-22T01:51:43.589Z,99.63
2023-01-22T01:52:43.535Z,99.53
2023-01-22T01:53:43.529Z,99.53
2023-01-22T01:54:43.508Z,99.53
2023-01-22T01:55:43.503Z,99.63
2023-01-22T01:56:43.496Z,99.74
2023-01-22T01:57:43.478Z,99.74
2023-01-22T01:58:43.462Z,99.74
2023-01-22T01:59:43.448Z,99.74
2023-01-22T02:00:43.577Z,99.63
2023-01-22T02:01:43.481Z,99.53
2023-01-22T02:02:43.405Z,99.53
2023-01-22T02:03:43.392Z,99.53
2023-01-22T02:04:43.385Z,99.43
2023-01-22T02:05:43.372Z,99.43
2023-01-22T02:06:43.370Z,99.43
2023-01-22T02:07:43.347Z,99.32
2023-01-22T02:08:43.341Z,99.22
2023-01-22T02:09:43.321Z,99.17
2023-01-22T02:10:43.328Z,99.32
2023-01-22T02:11:43.308Z,99.32
2023-01-22T02:12:43.280Z,99.27
2023-01-22T02:13:43.271Z,99.22
2023-01-22T02:14:43.259Z,99.22
2023-01-22T02:15:43.249Z,99.11
2023-01-22T02:16:43.362Z,99.11
2023-01-22T02:17:43.227Z,99.11
2023-01-22T02:18:43.205Z,99.11
2023-01-22T02:19:43.199Z,99.22
2023-01-22T02:20:43.184Z,99.22
2023-01-22T02:21:43.189Z,99.22
2023-01-22T02:22:43.156Z,99.22
2023-01-22T02:23:43.153Z,99.22
2023-01-22T02:24:43.192Z,99.11
2023-01-22T02:25:43.123Z,99.11
2023-01-22T02:26:43.139Z,99.11
2023-01-22T02:27:43.117Z,99.11
2023-01-22T02:28:43.083Z,99.11
2023-01-22T02:29:43.084Z,99.22
2023-01-22T02:30:43.073Z,99.17
2023-01-22T02:31:43.118Z,99.22
2023-01-22T02:32:43.147Z,99.22
2023-01-22T02:33:43.037Z,99.22
2023-01-22T02:34:43.002Z,99.22
2023-01-22T02:35:42.991Z,99.11
2023-01-22T02:36:42.998Z,99.22
2023-01-22T02:37:42.980Z,99.22
2023-01-22T02:38:42.954Z,99.22
2023-01-22T02:39:42.952Z,99.32
2023-01-22T02:40:42.932Z,99.43
2023-01-22T02:41:42.942Z,99.43
2023-01-22T02:42:42.903Z,99.43
2023-01-22T02:43:42.898Z,99.43
2023-01-22T02:44:42.893Z,99.38
2023-01-22T02:45:42.908Z,99.43
2023-01-22T02:46:42.859Z,99.53
2023-01-22T02:47:42.862Z,99.53
2023-01-22T02:48:42.953Z,99.53
2023-01-22T02:49:42.828Z,99.59
2023-01-22T02:50:42.806Z,99.59
2023-01-22T02:51:42.814Z,99.63
2023-01-22T02:52:42.803Z,99.63
2023-01-22T02:53:42.769Z,99.84
2023-01-22T02:54:42.769Z,99.84
2023-01-22T02:55:42.746Z,99.95
2023-01-22T02:56:42.733Z,99.84
2023-01-22T02:57:42.734Z,99.74
2023-01-22T02:58:42.707Z,99.84
2023-01-22T02:59:42.694Z,99.84
2023-01-22T03:00:42.709Z,99.84
2023-01-22T03:01:42.668Z,99.84
2023-01-22T03:02:42.675Z,99.95
2023-01-22T03:03:42.642Z,99.95
2023-01-22T03:04:42.756Z,99.84
2023-01-22T03:05:42.620Z,99.74
2023-01-22T03:06:42.626Z,99.84
2023-01-22T03:07:42.608Z,99.95
2023-01-22T03:08:42.577Z,99.95
2023-01-22T03:09:42.572Z,99.95
2023-01-22T03:10:42.549Z,99.99
2023-01-22T03:11:42.542Z,99.95
2023-01-22T03:12:42.540Z,99.99
2023-01-22T03:13:42.515Z,99.99
2023-01-22T03:14:42.502Z,99.99
2023-01-22T03:15:42.488Z,99.99
2023-01-22T03:16:42.517Z,99.99
2023-01-22T03:17:42.475Z,99.99
2023-01-22T03:18:42.457Z,99.95
2023-01-22T03:19:42.439Z,99.95
2023-01-22T03:20:42.543Z,99.95
2023-01-22T03:21:42.418Z,99.99
2023-01-22T03:22:42.417Z,99.95
2023-01-22T03:23:42.392Z,99.95
2023-01-22T03:24:42.387Z,99.95
2023-01-22T03:25:42.371Z,99.95
2023-01-22T03:26:42.360Z,99.95
2023-01-22T03:27:42.363Z,99.95
2023-01-22T03:28:42.342Z,99.95
2023-01-22T03:29:42.316Z,99.95
2023-01-22T03:30:42.303Z,99.99
2023-01-22T03:31:42.313Z,99.99
2023-01-22T03:32:42.292Z,99.99
2023-01-22T03:33:42.261Z,99.99
2023-01-22T03:34:42.256Z,99.99
2023-01-22T03:35:42.232Z,99.99
2023-01-22T03:36:42.344Z,99.99
2023-01-22T03:37:42.245Z,99.99
2023-01-22T03:38:42.212Z,99.99
2023-01-22T03:39:42.199Z,99.99
2023-01-22T03:40:42.179Z,99.99
2023-01-22T03:41:42.167Z,99.99
2023-01-22T03:42:42.169Z,99.99
2023-01-22T03:43:42.152Z,99.99
2023-01-22T03:44:42.122Z,99.99
2023-01-22T03:45:42.124Z,99.99
2023-01-22T03:46:42.106Z,99.99
2023-01-22T03:47:42.085Z,99.99
2023-01-22T03:48:42.094Z,99.99
2023-01-22T03:49:42.070Z,99.99
2023-01-22T03:50:42.051Z,99.99
2023-01-22T03:51:42.040Z,99.99
2023-01-22T03:52:42.140Z,99.99
2023-01-22T03:53:42.026Z,99.99
2023-01-22T03:54:42.014Z,99.99
2023-01-22T03:55:41.989Z,99.99
2023-01-22T03:56:42.039Z,99.99
2023-01-22T03:57:41.963Z,99.99
2023-01-22T03:58:41.969Z,99.99
2023-01-22T03:59:41.932Z,99.99
2023-01-22T04:00:41.925Z,99.99
2023-01-22T04:01:41.910Z,99.99
2023-01-22T04:02:41.966Z,99.99
2023-01-22T04:03:41.916Z,99.99
2023-01-22T04:04:41.876Z,99.99
2023-01-22T04:05:41.859Z,99.99
2023-01-22T04:06:41.845Z,99.99
2023-01-22T04:07:41.835Z,99.99
2023-01-22T04:08:41.965Z,99.99
2023-01-22T04:09:41.816Z,99.99
2023-01-22T04:10:41.812Z,99.99
2023-01-22T04:11:41.785Z,99.99
2023-01-22T04:12:41.768Z,99.99
2023-01-22T04:13:41.773Z,99.99
2023-01-22T04:14:41.748Z,99.99
2023-01-22T04:15:41.736Z,99.99
2023-01-22T04:16:41.825Z,99.99
2023-01-22T04:17:41.707Z,99.99
2023-01-22T04:18:41.709Z,99.99
2023-01-22T04:19:41.683Z,99.99
2023-01-22T04:20:41.677Z,99.99
2023-01-22T04:21:41.678Z,99.99
2023-01-22T04:22:41.648Z,99.99
2023-01-22T04:23:41.665Z,99.99
2023-01-22T04:24:47.555Z,99.99
2023-01-22T04:25:42.720Z,99.99
2023-01-22T04:26:41.601Z,99.99
2023-01-22T04:27:41.588Z,99.99
2023-01-22T04:28:41.585Z,99.99
2023-01-22T04:29:41.578Z,99.99
2023-01-22T04:30:41.659Z,99.99
2023-01-22T04:31:41.617Z,99.99
2023-01-22T04:32:41.521Z,99.99
2023-01-22T04:33:41.517Z,99.99
2023-01-22T04:34:41.498Z,99.99
2023-01-22T04:35:41.478Z,99.99
2023-01-22T04:36:41.470Z,99.99
2023-01-22T04:37:41.459Z,99.99
2023-01-22T04:38:41.454Z,99.99
2023-01-22T04:39:41.433Z,99.99
2023-01-22T04:40:41.415Z,99.99
2023-01-22T04:41:41.520Z,99.99
2023-01-22T04:42:41.403Z,99.99
2023-01-22T04:43:41.406Z,99.99
2023-01-22T04:44:41.378Z,99.99
2023-01-22T04:45:41.359Z,99.99
2023-01-22T04:46:41.356Z,99.99
2023-01-22T04:47:41.327Z,99.99
2023-01-22T04:48:41.349Z,99.99
2023-01-22T04:49:41.305Z,99.99
2023-01-22T04:50:41.293Z,99.99
2023-01-22T04:51:41.286Z,99.99
2023-01-22T04:52:41.274Z,99.99
2023-01-22T04:53:41.272Z,99.99
2023-01-22T04:54:41.243Z,99.99
2023-01-22T04:55:41.238Z,99.99
2023-01-22T04:56:41.217Z,99.99
2023-01-22T04:57:41.340Z,99.99
2023-01-22T04:58:41.221Z,99.99
2023-01-22T04:59:41.178Z,99.99
2023-01-22T05:00:41.176Z,99.99
2023-01-22T05:01:41.207Z,99.99
2023-01-22T05:02:41.227Z,99.99
2023-01-22T05:03:41.133Z,99.80
2023-01-22T05:04:41.139Z,99.90
2023-01-22T05:05:41.107Z,99.90
2023-01-22T05:06:41.100Z,99.90
2023-01-22T05:07:41.088Z,99.80
2023-01-22T05:08:41.069Z,99.69
2023-01-22T05:09:41.064Z,99.59
2023-01-22T05:10:41.057Z,99.59
2023-01-22T05:11:41.028Z,99.48
2023-01-22T05:12:41.024Z,99.44
2023-01-22T05:13:41.136Z,99.38
2023-01-22T05:14:41.022Z,99.44
2023-01-22T05:15:41.039Z,99.38
2023-01-22T05:16:40.967Z,99.38
2023-01-22T05:17:40.950Z,99.48
2023-01-22T05:18:40.951Z,99.48
2023-01-22T05:19:40.942Z,99.38
2023-01-22T05:20:40.914Z,99.38
2023-01-22T05:21:40.898Z,99.27
2023-01-22T05:22:40.908Z,99.27
2023-01-22T05:23:40.889Z,99.27
2023-01-22T05:24:40.889Z,99.38
2023-01-22T05:25:40.852Z,99.38
2023-01-22T05:26:40.840Z,99.38
2023-01-22T05:27:40.825Z,99.38
2023-01-22T05:28:40.814Z,99.38
2023-01-22T05:29:40.950Z,99.27
2023-01-22T05:30:40.967Z,99.38
2023-01-22T05:31:40.838Z,99.38
2023-01-22T05:32:40.767Z,99.27
2023-01-22T05:33:40.752Z,99.38
2023-01-22T05:34:40.759Z,99.38
2023-01-22T05:35:40.722Z,99.48
2023-01-22T05:36:40.719Z,99.38
2023-01-22T05:37:40.715Z,99.38
2023-01-22T05:38:40.688Z,99.38
2023-01-22T05:39:40.692Z,99.38
2023-01-22T05:40:40.663Z,99.48
2023-01-22T05:41:40.647Z,99.59
2023-01-22T05:42:40.636Z,99.69
2023-01-22T05:43:40.634Z,99.69
2023-01-22T05:44:40.628Z,99.69
2023-01-22T05:45:40.715Z,99.69
2023-01-22T05:46:40.586Z,99.69
2023-01-22T05:47:40.575Z,99.69
2023-01-22T05:48:40.569Z,99.95
2023-01-22T05:49:40.583Z,99.90
2023-01-22T05:50:40.536Z,99.99
2023-01-22T05:51:40.537Z,99.99
2023-01-22T05:52:40.511Z,99.99
2023-01-22T05:53:40.505Z,99.99
2023-01-22T05:54:40.504Z,99.99
2023-01-22T05:55:40.477Z,99.99
2023-01-22T05:56:40.465Z,99.99
2023-01-22T05:57:40.450Z,99.99
2023-01-22T05:58:40.442Z,99.99
2023-01-22T05:59:40.433Z,99.99
2023-01-22T06:00:40.409Z,99.99
2023-01-22T06:01:40.517Z,99.99
2023-01-22T06:02:40.424Z,99.99
2023-01-22T06:03:40.415Z,99.99
2023-01-22T06:04:40.380Z,99.99
2023-01-22T06:05:40.345Z,99.90
2023-01-22T06:06:40.335Z,99.95
2023-01-22T06:07:40.325Z,99.99
2023-01-22T06:08:40.314Z,99.99
2023-01-22T06:09:40.294Z,99.99
2023-01-22T06:10:40.295Z,99.99
2023-01-22T06:11:40.271Z,99.99
2023-01-22T06:12:40.264Z,99.99
2023-01-22T06:13:40.261Z,99.99
2023-01-22T06:14:40.230Z,99.99
2023-01-22T06:15:40.259Z,99.99
2023-01-22T06:16:40.234Z,99.99
2023-01-22T06:17:40.312Z,99.99
2023-01-22T06:18:40.190Z,99.99
2023-01-22T06:19:40.171Z,99.99
2023-01-22T06:20:40.172Z,99.99
2023-01-22T06:21:40.144Z,99.99
2023-01-22T06:22:40.143Z,99.99
2023-01-22T06:23:40.120Z,99.99
2023-01-22T06:24:40.112Z,99.99
2023-01-22T06:25:40.111Z,99.99
2023-01-22T06:26:40.080Z,99.99
2023-01-22T06:27:40.067Z,99.99
2023-01-22T06:28:40.060Z,99.99
2023-01-22T06:29:40.331Z,99.99
2023-01-22T06:30:40.129Z,99.99
2023-01-22T06:31:40.064Z,99.99
2023-01-22T06:32:40.010Z,99.99
2023-01-22T06:33:40.114Z,99.99
2023-01-22T06:34:39.987Z,99.99
2023-01-22T06:35:39.993Z,99.99
2023-01-22T06:36:42.662Z,99.99
2023-01-22T06:37:39.945Z,99.99
2023-01-22T06:38:39.933Z,99.99
2023-01-22T06:39:39.928Z,99.99
2023-01-22T06:40:39.925Z,99.99
2023-01-22T06:41:39.899Z,99.99
2023-01-22T06:42:39.905Z,99.99
2023-01-22T06:43:39.880Z,99.99
2023-01-22T06:44:39.874Z,99.99
2023-01-22T06:45:39.860Z,99.99
2023-01-22T06:46:39.860Z,99.99
2023-01-22T06:47:39.820Z,99.99
2023-01-22T06:48:39.809Z,99.99
2023-01-22T06:49:39.911Z,99.99
2023-01-22T06:50:39.805Z,99.99
2023-01-22T06:51:39.774Z,99.99
2023-01-22T06:52:39.756Z,99.90
2023-01-22T06:53:39.751Z,99.90
2023-01-22T06:54:39.730Z,99.90
2023-01-22T06:55:39.739Z,99.95
2023-01-22T06:56:39.707Z,99.95
2023-01-22T06:57:39.688Z,99.90
2023-01-22T06:58:39.688Z,99.80
2023-01-22T06:59:39.666Z,99.80
2023-01-22T07:00:39.666Z,99.69
2023-01-22T07:01:39.710Z,99.69
2023-01-22T07:02:39.631Z,99.69
2023-01-22T07:03:39.680Z,99.59
2023-01-22T07:04:39.608Z,99.48
2023-01-22T07:05:39.734Z,99.48
2023-01-22T07:06:39.584Z,99.38
2023-01-22T07:07:39.565Z,99.27
2023-01-22T07:08:39.554Z,99.17
2023-01-22T07:09:39.541Z,99.17
2023-01-22T07:10:39.567Z,99.07
2023-01-22T07:11:39.522Z,99.17
2023-01-22T07:12:39.511Z,99.07
2023-01-22T07:13:39.488Z,98.96
2023-01-22T07:14:39.489Z,98.86
2023-01-22T07:15:39.480Z,98.86
2023-01-22T07:16:39.454Z,98.86
2023-01-22T07:17:39.442Z,98.96
2023-01-22T07:18:39.460Z,98.86
2023-01-22T07:19:39.433Z,98.75
2023-01-22T07:20:39.434Z,98.75
2023-01-22T07:21:39.512Z,98.75
2023-01-22T07:22:39.379Z,98.65
2023-01-22T07:23:39.365Z,98.55
2023-01-22T07:24:39.363Z,98.55
2023-01-22T07:25:39.357Z,98.50
2023-01-22T07:26:39.328Z,98.50
2023-01-22T07:27:39.315Z,98.39
2023-01-22T07:28:39.303Z,98.39
2023-01-22T07:29:39.299Z,98.19
2023-01-22T07:30:39.314Z,98.19
2023-01-22T07:31:39.312Z,98.29
2023-01-22T07:32:39.248Z,98.19
2023-01-22T07:33:39.238Z,98.19
2023-01-22T07:34:39.234Z,97.98
2023-01-22T07:35:39.262Z,97.88
2023-01-22T07:36:39.202Z,97.88
2023-01-22T07:37:39.309Z,97.83
2023-01-22T07:38:39.181Z,97.62
2023-01-22T07:39:39.161Z,97.41
2023-01-22T07:40:39.164Z,97.31
2023-01-22T07:41:39.141Z,97.31
2023-01-22T07:42:39.130Z,97.20
2023-01-22T07:43:39.119Z,97.10
2023-01-22T07:44:39.098Z,97.20
2023-01-22T07:45:39.107Z,97.20
2023-01-22T07:46:39.235Z,97.10
2023-01-22T07:47:39.067Z,96.95
2023-01-22T07:48:39.049Z,96.95
2023-01-22T07:49:39.039Z,96.64
2023-01-22T07:50:39.047Z,96.43
2023-01-22T07:51:39.008Z,96.22
2023-01-22T07:52:38.999Z,96.12
2023-01-22T07:53:39.103Z,96.08
2023-01-22T07:54:38.976Z,95.97
2023-01-22T07:55:38.966Z,95.62
2023-01-22T07:56:38.958Z,95.45
2023-01-22T07:57:38.937Z,95.35
2023-01-22T07:58:38.921Z,95.14
2023-01-22T07:59:38.918Z,95.25
2023-01-22T08:00:38.931Z,95.45
2023-01-22T08:01:38.982Z,95.45
2023-01-22T08:02:38.871Z,95.35
2023-01-22T08:03:38.858Z,95.14
2023-01-22T08:04:38.842Z,95.25
2023-01-22T08:05:38.836Z,95.35
2023-01-22T08:06:38.837Z,95.45
2023-01-22T08:07:38.810Z,95.45
2023-01-22T08:08:38.796Z,95.66
2023-01-22T08:09:38.905Z,95.76
2023-01-22T08:10:38.768Z,95.76
2023-01-22T08:11:38.776Z,95.87
2023-01-22T08:12:38.749Z,95.66
2023-01-22T08:13:38.736Z,95.45
2023-01-22T08:14:38.722Z,95.45
2023-01-22T08:15:38.704Z,95.25
2023-01-22T08:16:38.794Z,95.25
2023-01-22T08:17:38.678Z,95.14
2023-01-22T08:18:38.673Z,95.25
2023-01-22T08:19:38.666Z,95.35
2023-01-22T08:20:38.641Z,95.35
2023-01-22T08:21:38.642Z,95.35
2023-01-22T08:22:38.616Z,95.09
2023-01-22T08:23:38.611Z,95.09
2023-01-22T08:24:38.624Z,95.09
2023-01-22T08:25:38.714Z,95.09
2023-01-22T08:26:38.584Z,95.09
2023-01-22T08:27:38.557Z,95.09
2023-01-22T08:28:38.536Z,95.09
2023-01-22T08:29:38.525Z,95.09
2023-01-22T08:30:46.195Z,94.89
2023-01-22T08:31:38.639Z,94.78
2023-01-22T08:32:38.590Z,94.68
2023-01-22T08:33:38.481Z,94.68
2023-01-22T08:34:38.466Z,94.57
2023-01-22T08:35:38.451Z,94.43
2023-01-22T08:36:38.465Z,94.12
2023-01-22T08:37:38.429Z,93.91
2023-01-22T08:38:38.418Z,93.80
2023-01-22T08:39:38.409Z,93.70
2023-01-22T08:40:38.388Z,93.70
2023-01-22T08:41:38.511Z,93.91
2023-01-22T08:42:38.362Z,94.01
2023-01-22T08:43:38.395Z,94.12
2023-01-22T08:44:38.337Z,94.12
2023-01-22T08:45:38.348Z,94.12
2023-01-22T08:46:38.327Z,94.12
2023-01-22T08:47:38.302Z,94.22
2023-01-22T08:48:38.285Z,94.22
2023-01-22T08:49:38.290Z,94.12
2023-01-22T08:50:38.269Z,94.01
2023-01-22T08:51:38.269Z,93.97
2023-01-22T08:52:38.242Z,93.76
2023-01-22T08:53:38.222Z,93.45
2023-01-22T08:54:38.213Z,93.35
2023-01-22T08:55:38.208Z,93.35
2023-01-22T08:56:38.182Z,93.24
2023-01-22T08:57:38.318Z,93.24
2023-01-22T08:58:38.163Z,93.03
2023-01-22T08:59:38.152Z,93.03
2023-01-22T09:00:38.135Z,92.99
2023-01-22T09:01:38.123Z,92.88
2023-01-22T09:02:38.120Z,92.78
2023-01-22T09:03:38.105Z,92.68
2023-01-22T09:04:39.649Z,92.68
2023-01-22T09:05:38.073Z,92.57
2023-01-22T09:06:38.055Z,92.26
2023-01-22T09:07:38.055Z,92.16
2023-01-22T09:08:38.031Z,92.22
2023-01-22T09:09:38.023Z,92.05
2023-01-22T09:10:38.000Z,92.11
2023-01-22T09:11:37.994Z,92.01
2023-01-22T09:12:37.991Z,92.05
2023-01-22T09:13:38.079Z,92.22
2023-01-22T09:14:37.955Z,92.22
2023-01-22T09:15:37.942Z,92.11
2023-01-22T09:16:37.974Z,91.91
2023-01-22T09:17:37.933Z,91.91
2023-01-22T09:18:37.903Z,91.60
2023-01-22T09:19:37.894Z,91.80
2023-01-22T09:20:37.878Z,91.70
2023-01-22T09:21:37.866Z,91.60
2023-01-22T09:22:37.863Z,91.60
2023-01-22T09:23:37.840Z,91.60
2023-01-22T09:24:37.821Z,91.39
2023-01-22T09:25:37.811Z,91.18
2023-01-22T09:26:37.796Z,91.18
2023-01-22T09:27:37.803Z,91.43
2023-01-22T09:28:37.778Z,91.64
2023-01-22T09:29:43.758Z,91.95
2023-01-22T09:30:38.908Z,91.95
2023-01-22T09:31:37.783Z,92.05
2023-01-22T09:32:37.741Z,92.05
2023-01-22T09:33:37.713Z,92.05
2023-01-22T09:34:37.700Z,91.85
2023-01-22T09:35:37.692Z,91.95
2023-01-22T09:36:37.674Z,92.05
2023-01-22T09:37:37.678Z,92.26
2023-01-22T09:38:37.649Z,92.47
2023-01-22T09:39:37.637Z,92.68
2023-01-22T09:40:37.626Z,92.93
2023-01-22T09:41:37.615Z,93.14
2023-01-22T09:42:37.628Z,93.35
2023-01-22T09:43:37.587Z,93.35
2023-01-22T09:44:37.594Z,93.30
2023-01-22T09:45:37.620Z,93.30
2023-01-22T09:46:37.657Z,93.10
2023-01-22T09:47:37.559Z,92.99
2023-01-22T09:48:37.527Z,92.99
2023-01-22T09:49:37.522Z,92.84
2023-01-22T09:50:37.507Z,92.63
2023-01-22T09:51:37.485Z,92.43
2023-01-22T09:52:37.473Z,92.32
2023-01-22T09:53:37.483Z,92.43
2023-01-22T09:54:37.457Z,92.11
2023-01-22T09:55:37.441Z,92.11
2023-01-22T09:56:37.421Z,92.11
2023-01-22T09:57:37.410Z,92.38
2023-01-22T09:58:37.414Z,92.01
2023-01-22T09:59:37.382Z,92.05
2023-01-22T10:00:37.370Z,92.11
2023-01-22T10:01:37.373Z,92.22
2023-01-22T10:02:37.538Z,92.32
2023-01-22T10:03:37.382Z,92.11
2023-01-22T10:04:37.321Z,92.11
2023-01-22T10:05:37.314Z,91.70
2023-01-22T10:06:37.297Z,91.80
2023-01-22T10:07:37.294Z,92.11
2023-01-22T10:08:37.287Z,91.80
2023-01-22T10:09:37.255Z,91.80
2023-01-22T10:10:37.247Z,91.60
2023-01-22T10:11:37.271Z,91.18
2023-01-22T10:12:37.219Z,91.70
2023-01-22T10:13:37.227Z,91.91
2023-01-22T10:14:37.209Z,92.18
2023-01-22T10:15:37.194Z,92.18
2023-01-22T10:16:37.198Z,92.07
2023-01-22T10:17:37.183Z,91.86
2023-01-22T10:18:37.275Z,91.55
2023-01-22T10:19:37.141Z,91.45
2023-01-22T10:20:37.129Z,91.41
2023-01-22T10:21:37.108Z,91.31
2023-01-22T10:22:37.108Z,91.20
2023-01-22T10:23:37.103Z,91.00
2023-01-22T10:24:37.077Z,90.75
2023-01-22T10:25:37.060Z,90.12
2023-01-22T10:26:37.052Z,90.12
2023-01-22T10:27:37.035Z,90.23
2023-01-22T10:28:37.033Z,90.08
2023-01-22T10:29:37.012Z,89.87
2023-01-22T10:30:37.190Z,88.94
2023-01-22T10:31:37.143Z,88.84
2023-01-22T10:32:36.975Z,88.73
2023-01-22T10:33:36.970Z,88.94
2023-01-22T10:34:37.108Z,88.94
2023-01-22T10:35:36.931Z,88.53
2023-01-22T10:36:36.915Z,88.32
2023-01-22T10:37:36.908Z,88.42
2023-01-22T10:38:36.943Z,88.73
2023-01-22T10:39:36.889Z,88.53
2023-01-22T10:40:36.882Z,88.42
2023-01-22T10:41:36.863Z,88.53
2023-01-22T10:42:36.842Z,88.39
2023-01-22T10:43:36.835Z,88.39
2023-01-22T10:44:36.830Z,87.76
2023-01-22T10:45:36.820Z,87.76
2023-01-22T10:46:36.795Z,87.76
2023-01-22T10:47:36.783Z,87.97
2023-01-22T10:48:36.771Z,88.28
2023-01-22T10:49:36.776Z,88.18
2023-01-22T10:50:36.887Z,88.18
2023-01-22T10:51:36.737Z,87.72
2023-01-22T10:52:36.737Z,87.62
2023-01-22T10:53:36.713Z,87.20
2023-01-22T10:54:36.710Z,87.20
2023-01-22T10:55:36.685Z,87.41
2023-01-22T10:56:36.668Z,87.41
2023-01-22T10:57:36.664Z,87.51
2023-01-22T10:58:36.651Z,87.72
2023-01-22T10:59:36.672Z,87.62
2023-01-22T11:00:50.567Z,87.41
2023-01-22T11:01:37.660Z,86.79
2023-01-22T11:02:36.665Z,87.10
2023-01-22T11:03:36.589Z,86.62
2023-01-22T11:04:36.600Z,86.21
2023-01-22T11:05:36.558Z,86.00
2023-01-22T11:06:36.675Z,86.31
2023-01-22T11:07:36.531Z,86.41
2023-01-22T11:08:36.519Z,86.00
2023-01-22T11:09:36.529Z,86.41
2023-01-22T11:10:36.508Z,86.72
2023-01-22T11:11:36.477Z,86.72
2023-01-22T11:12:36.473Z,86.72
2023-01-22T11:13:36.469Z,86.72
2023-01-22T11:14:36.467Z,86.62
2023-01-22T11:15:36.443Z,86.72
2023-01-22T11:16:36.422Z,86.41
2023-01-22T11:17:36.409Z,86.52
2023-01-22T11:18:36.393Z,86.31
2023-01-22T11:19:37.719Z,86.21
2023-01-22T11:20:36.376Z,86.41
2023-01-22T11:21:36.359Z,86.68
2023-01-22T11:22:36.452Z,86.68
2023-01-22T11:23:36.329Z,86.31
2023-01-22T11:24:36.327Z,86.27
2023-01-22T11:25:36.296Z,86.37
2023-01-22T11:26:36.286Z,86.27
2023-01-22T11:27:36.277Z,86.27
2023-01-22T11:28:36.256Z,86.47
2023-01-22T11:29:36.421Z,86.47
2023-01-22T11:30:36.279Z,86.47
2023-01-22T11:31:36.335Z,86.17
2023-01-22T11:32:36.208Z,85.96
2023-01-22T11:33:36.200Z,86.31
2023-01-22T11:34:36.196Z,86.07
2023-01-22T11:35:36.173Z,86.10
2023-01-22T11:36:36.152Z,86.00
2023-01-22T11:37:36.151Z,86.21
2023-01-22T11:38:36.249Z,86.07
2023-01-22T11:39:36.178Z,85.96
2023-01-22T11:40:36.102Z,86.31
2023-01-22T11:41:36.090Z,85.89
2023-01-22T11:42:36.080Z,86.00
2023-01-22T11:43:36.065Z,86.07
2023-01-22T11:44:36.064Z,85.86
2023-01-22T11:45:36.038Z,86.31
2023-01-22T11:46:36.108Z,86.58
2023-01-22T11:47:36.011Z,86.37
2023-01-22T11:48:36.001Z,85.86
2023-01-22T11:49:36.021Z,86.21
2023-01-22T11:50:35.974Z,86.31
2023-01-22T11:51:35.965Z,86.21
2023-01-22T11:52:35.948Z,85.44
2023-01-22T11:53:35.938Z,85.17
2023-01-22T11:54:36.034Z,85.38
2023-01-22T11:55:35.921Z,86.00
2023-01-22T11:56:35.893Z,86.21
2023-01-22T11:57:35.878Z,86.07
2023-01-22T11:58:35.870Z,85.75
2023-01-22T11:59:35.961Z,85.34
2023-01-22T12:00:35.857Z,85.65
2023-01-22T12:01:35.830Z,85.61
2023-01-22T12:02:35.862Z,85.50
2023-01-22T12:03:35.858Z,85.50
2023-01-22T12:04:35.819Z,85.19
2023-01-22T12:05:35.791Z,85.19
2023-01-22T12:06:35.772Z,85.36
2023-01-22T12:07:35.748Z,85.09
2023-01-22T12:08:35.739Z,84.99
2023-01-22T12:09:35.726Z,84.99
2023-01-22T12:10:35.843Z,85.26
2023-01-22T12:11:35.699Z,84.99
2023-01-22T12:12:35.688Z,84.88
2023-01-22T12:13:35.672Z,84.58
2023-01-22T12:14:35.659Z,84.33
2023-01-22T12:15:35.734Z,84.68
2023-01-22T12:16:35.635Z,84.74
2023-01-22T12:17:35.620Z,84.74
2023-01-22T12:18:35.613Z,84.95
2023-01-22T12:19:35.608Z,84.53
2023-01-22T12:20:35.608Z,84.64
2023-01-22T12:21:35.573Z,83.91
2023-01-22T12:22:35.561Z,83.91
2023-01-22T12:23:35.545Z,84.16
2023-01-22T12:24:35.571Z,84.37
2023-01-22T12:25:35.532Z,84.47
2023-01-22T12:26:35.623Z,84.47
2023-01-22T12:27:35.503Z,84.16
2023-01-22T12:28:35.510Z,83.95
2023-01-22T12:29:35.473Z,84.37
2023-01-22T12:30:35.507Z,84.78
2023-01-22T12:31:35.529Z,84.78
2023-01-22T12:32:35.432Z,84.78
2023-01-22T12:33:35.414Z,85.09
2023-01-22T12:34:35.405Z,84.99
2023-01-22T12:35:35.408Z,84.99
2023-01-22T12:36:35.377Z,85.61
2023-01-22T12:37:35.363Z,85.61
2023-01-22T12:38:35.355Z,85.30
2023-01-22T12:39:35.340Z,84.58
2023-01-22T12:40:35.344Z,84.72
2023-01-22T12:41:35.315Z,84.72
2023-01-22T12:42:35.422Z,84.99
2023-01-22T12:43:35.286Z,85.03
2023-01-22T12:44:35.285Z,84.92
2023-01-22T12:45:35.286Z,84.61
2023-01-22T12:46:35.328Z,84.61
2023-01-22T12:47:35.242Z,85.03
2023-01-22T12:48:35.223Z,84.72
2023-01-22T12:49:35.214Z,84.82
2023-01-22T12:50:35.216Z,84.92
2023-01-22T12:51:35.186Z,85.13
2023-01-22T12:52:35.175Z,85.27